Quadrille — MFCM9 — position and weather

sailwx.info

Track history (hours):
 
Tides and Currents Weather Stations Pressure Air Temp Water Temp Dewpoint Dewpoint Depression Visibility Wind Speed Wind Dir Waves Ship Positions

Quadrille

Last reported at 2017-Sep-28 11:06 UTC. Time now 2017-Oct-20 16:19 UTC.
Position N 37°04' W 008°40'.
Warning: this ship's position is 22 days out of date.

Length 9 m.

Type: Sailing vessel. MMSI: 235030365.

Date/timePositionNaut miles runAvg speedWind from/ knotsBaromVisibWave heightAir tempDewpointWater temp
2017-Sep-28 11:06N 37°04' W 008°40'  
2017-Sep-24 07:35N 37°51' W 008°53'1 5.7
2017-Sep-24 07:30N 37°52' W 008°53'3 5.6
2017-Sep-24 07:00N 37°55' W 008°53'2 4.7
2017-Sep-24 06:30N 37°57' W 008°52'  
2017-Sep-19 15:44N 38°42' W 009°25'0 2.0
2017-Sep-19 15:29N 38°42' W 009°24'7 4.7
2017-Sep-19 14:03N 38°46' W 009°31'1 6.2
2017-Sep-19 13:58N 38°46' W 009°31'2 4.8
2017-Sep-19 13:30N 38°48' W 009°32'3 5.2
2017-Sep-19 13:00N 38°51' W 009°31'2 4.9
2017-Sep-19 12:30N 38°53' W 009°31'3 5.2
2017-Sep-19 12:00N 38°56' W 009°31'3 5.2
2017-Sep-19 11:30N 38°59' W 009°30'  
Track history (hours):
 
Tides and Currents Weather Stations Pressure Air Temp Water Temp Dewpoint Dewpoint Depression Visibility Wind Speed Wind Dir Waves Ship Positions

Quadrille

Last reported at 2017-Sep-28 11:06 UTC. Time now 2017-Oct-20 16:19 UTC.
Position N 37°04' W 008°40'.
Warning: this ship's position is 22 days out of date.

Length 9 m.

Type: Sailing vessel. MMSI: 235030365.

Date/timePositionNaut miles runAvg speedWind from/ knotsBaromVisibWave heightAir tempDewpointWater temp
2017-Sep-28 11:06N 37°04' W 008°40'  
2017-Sep-24 07:35N 37°51' W 008°53'1 5.7
2017-Sep-24 07:30N 37°52' W 008°53'3 5.6
2017-Sep-24 07:00N 37°55' W 008°53'2 4.7
2017-Sep-24 06:30N 37°57' W 008°52'  
2017-Sep-19 15:44N 38°42' W 009°25'0 2.0
2017-Sep-19 15:29N 38°42' W 009°24'7 4.7
2017-Sep-19 14:03N 38°46' W 009°31'1 6.2
2017-Sep-19 13:58N 38°46' W 009°31'2 4.8
2017-Sep-19 13:30N 38°48' W 009°32'3 5.2
2017-Sep-19 13:00N 38°51' W 009°31'2 4.9
2017-Sep-19 12:30N 38°53' W 009°31'3 5.2
2017-Sep-19 12:00N 38°56' W 009°31'3 5.2
2017-Sep-19 11:30N 38°59' W 009°30'  

Dump ship's entire track history